Time;durP1;ratioP1;P1;durP2;ratioP2;P2;SDS_P1;SDS_P2;PMS_P1;PMS_P2;Temp;Humidity;BMP_temperature;BMP_pressure;BME280_temperature;BME280_humidity;BME280_pressure;Samples;Min_cycle;Max_cycle;Signal;HPM_P1;HPM_P2
2022/11/30 00:02:14;;;;;;;74.97;43.42;;;;;;;;;;5063348;28;20039;-67
2022/11/30 00:04:39;;;;;;;76.38;43.65;;;;;;;;;;5063338;28;20031;-67
2022/11/30 00:07:04;;;;;;;72.57;42.67;;;;;;;;;;5073438;28;20479;-67
2022/11/30 00:09:29;;;;;;;79.30;45.03;;;;;;;;;;5058763;28;20043;-67
2022/11/30 00:11:55;;;;;;;85.13;43.77;;;;;;;;;;5056212;28;20260;-67
2022/11/30 00:14:20;;;;;;;83.43;42.97;;;;;;;;;;5054815;28;20618;-67
2022/11/30 00:16:45;;;;;;;72.07;42.03;;;;;;;;;;5054289;28;20052;-67
2022/11/30 00:19:10;;;;;;;78.78;41.75;;;;;;;;;;5054682;28;20021;-67
2022/11/30 00:21:36;;;;;;;72.57;42.72;;;;;;;;;;5053666;28;20017;-67
2022/11/30 00:24:01;;;;;;;70.80;43.35;;;;;;;;;;5054199;28;20029;-67
2022/11/30 00:26:26;;;;;;;80.80;48.17;;;;;;;;;;5054610;28;20017;-67
2022/11/30 00:28:51;;;;;;;77.47;44.92;;;;;;;;;;5049560;28;20022;-66
2022/11/30 00:31:17;;;;;;;85.70;44.35;;;;;;;;;;5037742;28;20013;-67
2022/11/30 00:33:42;;;;;;;77.57;43.35;;;;;;;;;;5038854;28;20022;-67
2022/11/30 00:36:11;;;;;;;72.65;44.90;;;;;;;;;;5035152;28;20093;-66
2022/11/30 00:38:37;;;;;;;85.95;50.47;;;;;;;;;;5037709;28;20075;-67
2022/11/30 00:41:02;;;;;;;83.00;47.90;;;;;;;;;;5051651;28;20115;-66
2022/11/30 00:43:27;;;;;;;88.60;46.13;;;;;;;;;;5045519;28;20028;-66
2022/11/30 00:45:53;;;;;;;84.65;48.92;;;;;;;;;;5028909;28;20029;-66
2022/11/30 00:48:18;;;;;;;85.43;45.80;;;;;;;;;;5056347;28;20471;-65
2022/11/30 00:50:43;;;;;;;88.13;49.55;;;;;;;;;;5043916;28;20033;-65
2022/11/30 00:53:09;;;;;;;74.70;48.88;;;;;;;;;;5040668;28;20418;-65
2022/11/30 00:55:34;;;;;;;93.70;50.42;;;;;;;;;;5035993;28;20028;-64
2022/11/30 00:58:00;;;;;;;80.45;45.67;;;;;;;;;;5036526;28;20379;-65
2022/11/30 01:00:25;;;;;;;85.57;48.88;;;;;;;;;;5042929;28;20017;-65
2022/11/30 01:02:54;;;;;;;105.32;54.22;;;;;;;;;;5041149;28;20029;-65
2022/11/30 01:05:19;;;;;;;92.22;49.50;;;;;;;;;;5021909;28;20941;-65
2022/11/30 01:07:44;;;;;;;92.15;52.47;;;;;;;;;;5030803;28;20025;-65
2022/11/30 01:10:09;;;;;;;99.25;53.17;;;;;;;;;;5017603;28;20025;-65
2022/11/30 01:12:35;;;;;;;107.47;56.85;;;;;;;;;;5021749;28;20424;-65
2022/11/30 01:15:00;;;;;;;118.13;56.17;;;;;;;;;;5023644;28;20047;-65
2022/11/30 01:17:25;;;;;;;89.18;54.70;;;;;;;;;;5033234;28;20905;-64
2022/11/30 01:19:51;;;;;;;98.63;56.72;;;;;;;;;;5045618;28;20075;-63
2022/11/30 01:22:16;;;;;;;104.68;55.75;;;;;;;;;;5051593;28;20029;-63
2022/11/30 01:24:41;;;;;;;109.32;59.33;;;;;;;;;;5040673;28;20024;-63
2022/11/30 01:27:06;;;;;;;91.43;55.03;;;;;;;;;;5043069;28;20136;-64
2022/11/30 01:29:31;;;;;;;96.15;55.33;;;;;;;;;;5033604;28;20056;-64
2022/11/30 01:31:57;;;;;;;99.97;54.83;;;;;;;;;;5034506;28;20423;-64
2022/11/30 01:34:22;;;;;;;107.50;52.85;;;;;;;;;;5036012;28;20019;-63
2022/11/30 01:36:47;;;;;;;99.88;54.03;;;;;;;;;;5045120;28;20025;-63
2022/11/30 01:39:12;;;;;;;98.40;53.22;;;;;;;;;;5042880;28;20100;-63
2022/11/30 01:41:38;;;;;;;90.18;52.45;;;;;;;;;;5066227;28;20074;-64
2022/11/30 01:44:03;;;;;;;95.25;52.53;;;;;;;;;;5053465;28;20036;-64
2022/11/30 01:46:31;;;;;;;81.90;49.37;;;;;;;;;;5052928;28;20024;-63
2022/11/30 01:48:56;;;;;;;90.63;52.25;;;;;;;;;;5053062;28;20279;-63
2022/11/30 01:51:22;;;;;;;80.32;49.75;;;;;;;;;;5053265;28;20028;-63
2022/11/30 01:53:47;;;;;;;98.57;53.45;;;;;;;;;;5053324;28;20578;-63
2022/11/30 01:56:12;;;;;;;99.10;53.40;;;;;;;;;;5051611;28;20028;-64
2022/11/30 01:58:38;;;;;;;84.70;50.75;;;;;;;;;;5052943;28;20079;-64
2022/11/30 02:01:03;;;;;;;91.18;54.00;;;;;;;;;;5052683;28;20025;-64
2022/11/30 02:03:34;;;;;;;98.32;50.38;;;;;;;;;;5046269;28;20051;-63
2022/11/30 02:06:00;;;;;;;85.80;52.83;;;;;;;;;;5063218;28;20493;-63
2022/11/30 02:08:26;;;;;;;102.00;53.25;;;;;;;;;;5042237;28;20021;-63
2022/11/30 02:10:54;;;;;;;92.93;53.83;;;;;;;;;;5050754;28;20056;-64
2022/11/30 02:13:22;;;;;;;102.45;57.53;;;;;;;;;;5053494;28;20029;-64
2022/11/30 02:15:56;;;;;;;96.00;53.45;;;;;;;;;;5053339;28;20017;-64
2022/11/30 02:18:21;;;;;;;;;;;;;;;;;;5044451;28;20025;-63
2022/11/30 02:21:07;;;;;;;104.85;53.03;;;;;;;;;;5043897;28;20012;-63
2022/11/30 02:23:44;;;;;;;107.65;57.63;;;;;;;;;;5030539;28;20483;-63
2022/11/30 02:26:21;;;;;;;99.00;54.92;;;;;;;;;;5045677;28;20105;-63
2022/11/30 02:28:53;;;;;;;100.70;52.63;;;;;;;;;;5050985;28;20017;-63
2022/11/30 02:31:20;;;;;;;98.53;56.08;;;;;;;;;;5052288;28;20021;-63
2022/11/30 02:33:46;;;;;;;94.22;52.83;;;;;;;;;;5051924;28;20027;-63
2022/11/30 02:36:11;;;;;;;101.10;55.80;;;;;;;;;;5052141;28;20103;-63
2022/11/30 02:38:37;;;;;;;91.22;53.08;;;;;;;;;;5051691;28;20029;-63
2022/11/30 02:41:02;;;;;;;91.53;50.38;;;;;;;;;;5062270;28;20028;-63
2022/11/30 02:43:28;;;;;;;101.35;53.35;;;;;;;;;;5051682;28;20025;-63
2022/11/30 02:45:56;;;;;;;87.75;50.22;;;;;;;;;;5049956;28;20035;-63
2022/11/30 02:48:27;;;;;;;103.57;51.80;;;;;;;;;;5049386;28;20029;-63
2022/11/30 02:50:55;;;;;;;99.65;52.72;;;;;;;;;;5033603;28;20082;-63
2022/11/30 02:53:20;;;;;;;93.18;50.92;;;;;;;;;;5044567;28;20021;-63
2022/11/30 02:55:46;;;;;;;101.15;52.63;;;;;;;;;;5052012;28;20159;-63
2022/11/30 02:58:12;;;;;;;79.28;49.08;;;;;;;;;;5052050;28;20090;-63
2022/11/30 03:00:37;;;;;;;101.82;49.42;;;;;;;;;;5050227;28;20016;-63
2022/11/30 03:03:02;;;;;;;92.40;50.50;;;;;;;;;;5051562;28;20055;-63
2022/11/30 03:05:27;;;;;;;96.03;48.20;;;;;;;;;;5050758;28;20054;-63
2022/11/30 03:07:53;;;;;;;91.78;50.90;;;;;;;;;;5051621;28;20021;-63
2022/11/30 03:10:18;;;;;;;88.88;49.03;;;;;;;;;;5034354;28;20119;-63
2022/11/30 03:12:43;;;;;;;103.97;51.92;;;;;;;;;;5032857;28;20014;-63
2022/11/30 03:15:08;;;;;;;96.82;49.60;;;;;;;;;;5035092;28;20104;-63
2022/11/30 03:17:34;;;;;;;90.90;49.35;;;;;;;;;;5034507;28;20052;-63
2022/11/30 03:19:59;;;;;;;92.97;47.42;;;;;;;;;;5036869;28;20020;-64
2022/11/30 03:22:24;;;;;;;101.78;50.33;;;;;;;;;;5051894;28;20747;-63
2022/11/30 03:24:50;;;;;;;100.32;53.28;;;;;;;;;;5055614;28;20024;-63
2022/11/30 03:27:15;;;;;;;89.75;50.13;;;;;;;;;;5040592;28;20021;-63
2022/11/30 03:29:40;;;;;;;106.03;54.20;;;;;;;;;;5049687;28;20024;-63
2022/11/30 03:32:06;;;;;;;100.50;49.38;;;;;;;;;;5043470;28;20150;-63
2022/11/30 03:34:31;;;;;;;92.25;50.58;;;;;;;;;;5063630;28;20368;-63
2022/11/30 03:36:57;;;;;;;107.07;52.30;;;;;;;;;;5051510;28;20100;-63
2022/11/30 03:39:23;;;;;;;97.00;50.17;;;;;;;;;;5057866;28;20336;-63
2022/11/30 03:41:48;;;;;;;98.18;49.00;;;;;;;;;;5069717;28;20136;-63
2022/11/30 03:44:13;;;;;;;92.90;51.35;;;;;;;;;;5036902;28;20025;-63
2022/11/30 03:46:38;;;;;;;105.60;56.47;;;;;;;;;;5038358;28;20012;-64
2022/11/30 03:49:04;;;;;;;106.05;54.42;;;;;;;;;;5036484;28;20096;-64
2022/11/30 03:51:30;;;;;;;103.82;57.63;;;;;;;;;;5037785;28;20052;-64
2022/11/30 03:53:55;;;;;;;100.20;53.03;;;;;;;;;;5039429;28;20468;-64
2022/11/30 03:56:20;;;;;;;117.10;59.58;;;;;;;;;;5043353;28;20494;-64
2022/11/30 03:58:45;;;;;;;120.65;59.05;;;;;;;;;;5040910;28;20014;-64
2022/11/30 04:01:15;;;;;;;120.80;63.13;;;;;;;;;;5042140;28;20139;-65
2022/11/30 04:03:41;;;;;;;139.60;66.50;;;;;;;;;;5036968;28;20026;-64
2022/11/30 04:06:09;;;;;;;137.65;64.43;;;;;;;;;;5037927;28;20567;-64
2022/11/30 04:08:36;;;;;;;124.93;64.88;;;;;;;;;;5035945;28;20028;-63
2022/11/30 04:11:01;;;;;;;142.25;70.82;;;;;;;;;;5037564;28;20033;-64
2022/11/30 04:13:27;;;;;;;139.75;66.75;;;;;;;;;;5038404;28;20013;-64
2022/11/30 04:15:53;;;;;;;126.22;65.18;;;;;;;;;;5038001;28;20420;-63
2022/11/30 04:18:19;;;;;;;133.02;68.07;;;;;;;;;;5045354;28;20019;-64
2022/11/30 04:20:45;;;;;;;158.13;73.28;;;;;;;;;;5063959;28;20410;-64
2022/11/30 04:23:10;;;;;;;154.05;74.45;;;;;;;;;;5054604;28;20079;-64
2022/11/30 04:25:37;;;;;;;167.85;78.88;;;;;;;;;;5054878;28;20067;-64
2022/11/30 04:28:02;;;;;;;146.95;74.50;;;;;;;;;;5054118;28;20049;-63
2022/11/30 04:30:27;;;;;;;142.77;70.03;;;;;;;;;;5054777;28;20480;-63
2022/11/30 04:32:52;;;;;;;160.55;73.80;;;;;;;;;;5052670;28;20444;-64
2022/11/30 04:35:17;;;;;;;163.70;76.25;;;;;;;;;;5052778;28;20078;-64
2022/11/30 04:37:43;;;;;;;145.52;70.38;;;;;;;;;;5054032;28;20028;-63
2022/11/30 04:40:08;;;;;;;147.67;73.97;;;;;;;;;;5057026;28;20063;-63
2022/11/30 04:42:33;;;;;;;145.10;76.70;;;;;;;;;;5064485;28;20287;-63
2022/11/30 04:44:59;;;;;;;145.57;77.32;;;;;;;;;;5054040;28;20056;-63
2022/11/30 04:47:24;;;;;;;149.60;76.50;;;;;;;;;;5054653;28;20017;-63
2022/11/30 04:49:49;;;;;;;161.60;79.33;;;;;;;;;;5039649;28;20074;-63
2022/11/30 04:52:15;;;;;;;147.90;77.40;;;;;;;;;;5035120;28;20363;-63
2022/11/30 04:54:40;;;;;;;172.98;81.38;;;;;;;;;;5048039;28;20338;-64
2022/11/30 04:57:05;;;;;;;148.40;76.70;;;;;;;;;;5054411;28;20025;-64
2022/11/30 04:59:31;;;;;;;153.20;82.53;;;;;;;;;;5048620;28;20790;-64
2022/11/30 05:01:56;;;;;;;160.07;83.88;;;;;;;;;;5061457;28;20078;-64
2022/11/30 05:04:21;;;;;;;156.48;80.68;;;;;;;;;;5053562;28;20021;-64
2022/11/30 05:06:46;;;;;;;161.63;82.32;;;;;;;;;;5053787;28;20017;-64
2022/11/30 05:09:12;;;;;;;161.80;79.03;;;;;;;;;;5054234;28;20071;-63
2022/11/30 05:11:37;;;;;;;171.43;83.30;;;;;;;;;;5053608;28;20021;-64
2022/11/30 05:14:03;;;;;;;161.37;85.67;;;;;;;;;;5054387;28;20080;-64
2022/11/30 05:16:28;;;;;;;144.23;76.57;;;;;;;;;;5033053;28;20773;-64
2022/11/30 05:18:53;;;;;;;138.57;83.03;;;;;;;;;;5044738;28;20096;-64
2022/11/30 05:21:18;;;;;;;165.77;83.95;;;;;;;;;;5053438;28;20025;-64
2022/11/30 05:23:45;;;;;;;115.88;63.13;;;;;;;;;;5053323;28;20029;-64
2022/11/30 05:26:11;;;;;;;137.23;73.65;;;;;;;;;;5052648;28;20059;-64
2022/11/30 05:28:36;;;;;;;157.90;83.25;;;;;;;;;;5053216;28;20013;-64
2022/11/30 05:31:02;;;;;;;156.85;83.25;;;;;;;;;;5052303;28;20040;-64
2022/11/30 05:33:28;;;;;;;147.23;79.57;;;;;;;;;;5051821;28;20020;-64
2022/11/30 05:35:53;;;;;;;131.57;72.50;;;;;;;;;;5062358;28;20029;-64
2022/11/30 05:38:18;;;;;;;127.70;77.88;;;;;;;;;;5053418;28;20082;-64
2022/11/30 05:40:43;;;;;;;131.55;78.10;;;;;;;;;;5059567;28;20430;-64
2022/11/30 05:43:09;;;;;;;133.27;75.93;;;;;;;;;;5059582;28;20025;-64
2022/11/30 05:45:34;;;;;;;141.95;75.40;;;;;;;;;;5052707;28;20332;-64
2022/11/30 05:47:59;;;;;;;124.78;71.88;;;;;;;;;;5051284;28;20032;-64
2022/11/30 05:50:25;;;;;;;127.63;75.68;;;;;;;;;;5052162;28;20119;-64
2022/11/30 05:52:56;;;;;;;144.38;74.07;;;;;;;;;;5053227;28;20041;-64
2022/11/30 05:55:23;;;;;;;122.40;73.47;;;;;;;;;;5034023;28;20017;-64
2022/11/30 05:57:48;;;;;;;145.30;76.07;;;;;;;;;;5047076;28;20444;-64
2022/11/30 06:00:13;;;;;;;122.85;75.60;;;;;;;;;;5040738;28;20074;-64
2022/11/30 06:02:39;;;;;;;125.75;73.03;;;;;;;;;;5052973;28;20124;-64
2022/11/30 06:05:04;;;;;;;109.63;72.80;;;;;;;;;;5037923;28;20036;-64
2022/11/30 06:07:29;;;;;;;117.72;71.63;;;;;;;;;;5047089;28;20021;-64
2022/11/30 06:09:55;;;;;;;128.43;76.80;;;;;;;;;;5035662;28;20108;-64
2022/11/30 06:12:20;;;;;;;108.55;67.63;;;;;;;;;;5034286;28;20029;-64
2022/11/30 06:14:45;;;;;;;133.43;73.03;;;;;;;;;;5040454;28;20083;-65
2022/11/30 06:17:10;;;;;;;128.53;71.37;;;;;;;;;;5052843;28;20104;-64
2022/11/30 06:19:36;;;;;;;124.30;77.65;;;;;;;;;;5040555;28;20411;-64
2022/11/30 06:22:01;;;;;;;116.93;69.65;;;;;;;;;;5043706;28;20021;-64
2022/11/30 06:24:26;;;;;;;131.10;76.47;;;;;;;;;;5038545;28;20013;-64
2022/11/30 06:26:51;;;;;;;127.05;71.63;;;;;;;;;;5035377;28;20021;-64
2022/11/30 06:29:16;;;;;;;119.03;73.17;;;;;;;;;;5040015;28;20021;-64
2022/11/30 06:31:42;;;;;;;130.30;73.78;;;;;;;;;;5033695;28;20272;-65
2022/11/30 06:34:07;;;;;;;118.88;68.93;;;;;;;;;;5051113;28;20017;-64
2022/11/30 06:36:32;;;;;;;128.75;69.95;;;;;;;;;;5053025;28;20017;-64
2022/11/30 06:38:57;;;;;;;112.35;72.05;;;;;;;;;;5050361;28;20080;-64
2022/11/30 06:41:23;;;;;;;105.40;67.47;;;;;;;;;;5043779;28;20021;-64
2022/11/30 06:43:48;;;;;;;117.68;69.07;;;;;;;;;;5036670;28;20041;-64
2022/11/30 06:46:13;;;;;;;117.47;69.70;;;;;;;;;;5034595;28;20116;-64
2022/11/30 06:48:39;;;;;;;113.32;70.95;;;;;;;;;;5038264;28;20024;-65
2022/11/30 06:51:05;;;;;;;117.40;67.90;;;;;;;;;;5034766;28;20028;-65
2022/11/30 06:53:30;;;;;;;96.80;63.13;;;;;;;;;;5040103;28;20526;-65
2022/11/30 06:55:55;;;;;;;106.38;68.70;;;;;;;;;;5047246;28;20086;-65
2022/11/30 06:58:21;;;;;;;127.30;69.88;;;;;;;;;;5047542;28;20017;-64
2022/11/30 07:00:46;;;;;;;106.45;67.40;;;;;;;;;;5052339;28;20009;-65
2022/11/30 07:03:11;;;;;;;111.00;63.53;;;;;;;;;;5052266;28;20467;-65
2022/11/30 07:05:44;;;;;;;97.78;67.40;;;;;;;;;;5055771;28;20069;-65
2022/11/30 07:08:10;;;;;;;103.95;65.57;;;;;;;;;;5046369;28;20028;-65
2022/11/30 07:10:42;;;;;;;103.28;63.75;;;;;;;;;;5036099;28;20861;-65
2022/11/30 07:13:11;;;;;;;101.10;66.32;;;;;;;;;;5018418;28;20418;-64
2022/11/30 07:15:36;;;;;;;99.68;60.13;;;;;;;;;;5032572;28;20021;-65
2022/11/30 07:18:02;;;;;;;102.82;61.28;;;;;;;;;;5030293;28;20035;-64
2022/11/30 07:20:27;;;;;;;107.28;64.97;;;;;;;;;;5024805;28;20035;-65
2022/11/30 07:22:55;;;;;;;111.10;63.53;;;;;;;;;;5032052;28;20035;-65
2022/11/30 07:28:07;;;;;;;79.35;51.53;;;;;;;;;;5018086;28;20919;-65
2022/11/30 07:30:32;;;;;;;95.47;63.90;;;;;;;;;;5024702;28;20028;-65
2022/11/30 07:32:58;;;;;;;102.40;65.78;;;;;;;;;;5018913;28;20090;-65
2022/11/30 07:35:23;;;;;;;90.90;62.03;;;;;;;;;;5013324;28;20021;-65
2022/11/30 07:37:48;;;;;;;102.75;61.13;;;;;;;;;;5006940;28;20029;-65
2022/11/30 07:40:13;;;;;;;97.32;58.40;;;;;;;;;;5012697;28;20467;-64
2022/11/30 07:42:39;;;;;;;105.25;60.28;;;;;;;;;;5024079;28;20068;-65
2022/11/30 07:45:04;;;;;;;98.22;66.95;;;;;;;;;;5016403;28;20588;-65
2022/11/30 07:47:29;;;;;;;102.05;64.72;;;;;;;;;;5012081;28;20040;-65
2022/11/30 07:49:55;;;;;;;92.00;63.55;;;;;;;;;;5026907;28;20044;-65
2022/11/30 07:52:20;;;;;;;86.07;57.55;;;;;;;;;;5026382;28;20032;-65
2022/11/30 07:54:45;;;;;;;103.82;64.03;;;;;;;;;;5018667;28;20220;-65
2022/11/30 07:57:11;;;;;;;95.20;59.63;;;;;;;;;;5007242;28;20021;-65
2022/11/30 07:59:36;;;;;;;96.47;64.57;;;;;;;;;;5008635;28;20013;-65
2022/11/30 08:02:01;;;;;;;88.68;58.45;;;;;;;;;;5005791;28;20095;-67
2022/11/30 08:04:27;;;;;;;95.45;63.80;;;;;;;;;;5006515;28;20213;-66
2022/11/30 08:06:52;;;;;;;103.32;61.65;;;;;;;;;;5008759;28;20033;-67
2022/11/30 08:09:17;;;;;;;103.47;64.63;;;;;;;;;;5008666;28;20033;-66
2022/11/30 08:11:43;;;;;;;89.38;62.38;;;;;;;;;;5005594;28;20022;-66
2022/11/30 08:14:11;;;;;;;93.70;60.80;;;;;;;;;;5009488;28;20839;-66
2022/11/30 08:16:39;;;;;;;111.95;65.95;;;;;;;;;;5000836;28;20021;-66
2022/11/30 08:19:04;;;;;;;94.63;57.95;;;;;;;;;;5010418;28;20013;-65
2022/11/30 08:21:31;;;;;;;88.88;59.58;;;;;;;;;;5009910;28;20128;-65
2022/11/30 08:23:56;;;;;;;98.63;62.30;;;;;;;;;;5012112;28;20075;-65
2022/11/30 08:26:27;;;;;;;90.55;58.45;;;;;;;;;;5015193;28;20019;-65
2022/11/30 08:28:52;;;;;;;97.10;61.28;;;;;;;;;;5019759;28;20957;-65
2022/11/30 08:31:25;;;;;;;93.18;57.53;;;;;;;;;;5013052;28;20048;-65
2022/11/30 08:34:01;;;;;;;83.70;57.53;;;;;;;;;;5012695;28;20060;-65
2022/11/30 08:36:27;;;;;;;104.57;62.95;;;;;;;;;;5005018;28;20083;-65
2022/11/30 08:38:52;;;;;;;93.82;58.70;;;;;;;;;;5022059;28;20043;-65
2022/11/30 08:41:20;;;;;;;91.50;58.15;;;;;;;;;;5015787;28;20108;-65
2022/11/30 08:43:46;;;;;;;90.72;55.90;;;;;;;;;;5006446;28;20029;-65
2022/11/30 08:46:12;;;;;;;80.97;54.47;;;;;;;;;;5021838;28;20079;-66
2022/11/30 08:48:37;;;;;;;85.65;54.72;;;;;;;;;;5022625;28;20016;-65
2022/11/30 08:51:04;;;;;;;99.35;58.88;;;;;;;;;;5034069;28;20032;-66
2022/11/30 08:53:29;;;;;;;85.43;56.63;;;;;;;;;;5034694;28;20962;-65
2022/11/30 08:55:56;;;;;;;98.78;58.05;;;;;;;;;;5022971;28;20050;-65
2022/11/30 08:58:21;;;;;;;80.32;54.50;;;;;;;;;;5033010;28;20846;-65
2022/11/30 09:00:46;;;;;;;76.07;51.13;;;;;;;;;;5025847;28;20072;-65
2022/11/30 09:03:11;;;;;;;85.82;55.35;;;;;;;;;;5021972;28;20826;-65
2022/11/30 09:05:36;;;;;;;80.10;54.88;;;;;;;;;;5033783;28;21020;-66
2022/11/30 09:08:02;;;;;;;74.82;53.95;;;;;;;;;;5021526;28;20932;-66
2022/11/30 09:10:27;;;;;;;75.70;52.58;;;;;;;;;;5019772;28;20289;-65
2022/11/30 09:12:52;;;;;;;86.05;54.22;;;;;;;;;;5021681;28;20025;-65
2022/11/30 09:15:17;;;;;;;93.65;57.53;;;;;;;;;;5021927;28;20029;-65
2022/11/30 09:17:43;;;;;;;75.65;51.20;;;;;;;;;;5034698;28;20075;-65
2022/11/30 09:20:08;;;;;;;88.40;59.78;;;;;;;;;;5025391;28;20226;-66
2022/11/30 09:22:34;;;;;;;79.00;52.28;;;;;;;;;;5029703;28;20095;-66
2022/11/30 09:24:59;;;;;;;73.65;51.13;;;;;;;;;;5029629;28;20017;-66
2022/11/30 09:27:29;;;;;;;83.43;54.00;;;;;;;;;;5019800;28;20020;-66
2022/11/30 09:29:54;;;;;;;79.93;52.92;;;;;;;;;;5022597;28;20033;-66
2022/11/30 09:32:19;;;;;;;72.57;50.35;;;;;;;;;;5024121;28;21055;-66
2022/11/30 09:34:45;;;;;;;74.32;51.65;;;;;;;;;;5034136;28;20097;-66
2022/11/30 09:37:10;;;;;;;76.90;51.95;;;;;;;;;;5042069;28;20025;-66
2022/11/30 09:39:35;;;;;;;75.80;45.55;;;;;;;;;;5030821;28;20028;-66
2022/11/30 09:42:00;;;;;;;71.55;51.60;;;;;;;;;;5014381;28;20028;-66
2022/11/30 09:45:04;;;;;;;72.00;51.60;;;;;;;;;;5023656;28;20033;-66
2022/11/30 09:47:40;;;;;;;64.07;44.38;;;;;;;;;;4990658;28;20025;-66
2022/11/30 09:50:25;;;;;;;73.63;48.03;;;;;;;;;;4999337;28;20041;-66
2022/11/30 09:52:54;;;;;;;69.15;47.15;;;;;;;;;;5015539;28;20043;-66
2022/11/30 09:55:24;;;;;;;69.53;48.88;;;;;;;;;;5025137;28;20091;-66
2022/11/30 09:57:54;;;;;;;59.83;43.08;;;;;;;;;;5014666;28;20815;-67
2022/11/30 10:00:23;;;;;;;69.25;50.33;;;;;;;;;;5017972;28;20021;-66
2022/11/30 10:02:49;;;;;;;66.82;49.17;;;;;;;;;;5018385;28;20032;-66
2022/11/30 10:05:16;;;;;;;63.60;44.38;;;;;;;;;;5014703;28;20025;-66
2022/11/30 10:08:08;;;;;;;63.35;47.38;;;;;;;;;;5020951;28;20025;-66
2022/11/30 10:10:45;;;;;;;69.45;47.58;;;;;;;;;;5029029;28;20918;-66
2022/11/30 10:13:32;;;;;;;58.22;44.13;;;;;;;;;;5025653;28;20030;-66
2022/11/30 10:16:03;;;;;;;60.17;42.75;;;;;;;;;;5017889;28;20025;-66
2022/11/30 10:18:43;;;;;;;63.28;40.25;;;;;;;;;;5016454;28;20029;-66
2022/11/30 10:21:11;;;;;;;53.15;37.40;;;;;;;;;;5023389;28;20028;-66
2022/11/30 10:23:52;;;;;;;49.05;38.65;;;;;;;;;;5020508;28;20052;-66
2022/11/30 10:26:23;;;;;;;43.45;34.67;;;;;;;;;;5024555;28;20033;-66
2022/11/30 10:28:53;;;;;;;52.20;36.22;;;;;;;;;;5025204;28;20120;-66
2022/11/30 10:31:28;;;;;;;44.08;34.05;;;;;;;;;;5023472;28;20016;-66
2022/11/30 10:33:56;;;;;;;44.95;32.92;;;;;;;;;;5020551;28;20056;-66
2022/11/30 10:36:40;;;;;;;42.47;31.65;;;;;;;;;;5015071;28;20114;-67
2022/11/30 10:39:18;;;;;;;49.78;33.53;;;;;;;;;;5015761;28;20029;-67
2022/11/30 10:42:04;;;;;;;44.97;32.03;;;;;;;;;;5018283;28;20115;-67
2022/11/30 10:44:32;;;;;;;40.25;30.08;;;;;;;;;;5012375;28;20051;-66
2022/11/30 10:47:16;;;;;;;42.03;32.00;;;;;;;;;;5014029;28;20024;-67
2022/11/30 10:49:44;;;;;;;45.77;31.63;;;;;;;;;;5019756;28;20075;-67
2022/11/30 10:52:11;;;;;;;41.03;27.27;;;;;;;;;;5034719;28;20028;-67
2022/11/30 10:54:37;;;;;;;38.08;26.90;;;;;;;;;;5030963;28;20032;-67
2022/11/30 10:57:03;;;;;;;45.83;30.30;;;;;;;;;;5040249;28;20713;-67
2022/11/30 10:59:37;;;;;;;44.45;26.35;;;;;;;;;;5027105;28;20847;-67
2022/11/30 11:02:02;;;;;;;;;;;;;;;;;;5038598;28;20746;-67
2022/11/30 11:04:28;;;;;;;37.33;25.23;;;;;;;;;;5023796;28;20378;-67
2022/11/30 11:06:55;;;;;;;35.20;24.83;;;;;;;;;;5039809;28;20861;-67
2022/11/30 11:09:34;;;;;;;37.63;27.48;;;;;;;;;;5026540;28;20025;-67
2022/11/30 11:12:12;;;;;;;38.28;24.52;;;;;;;;;;5032115;28;20083;-67
2022/11/30 11:14:37;;;;;;;33.17;24.60;;;;;;;;;;5027130;28;20029;-67
2022/11/30 11:17:04;;;;;;;37.67;24.73;;;;;;;;;;5021336;28;20029;-67
2022/11/30 11:19:34;;;;;;;33.80;24.02;;;;;;;;;;5029939;28;20286;-66
2022/11/30 11:22:01;;;;;;;32.22;25.02;;;;;;;;;;5026516;28;20062;-67
2022/11/30 11:24:27;;;;;;;29.10;23.20;;;;;;;;;;5019871;28;20116;-67
2022/11/30 11:26:53;;;;;;;30.65;22.77;;;;;;;;;;5025896;28;20872;-67
2022/11/30 11:29:30;;;;;;;29.45;22.38;;;;;;;;;;5031134;28;20032;-66
2022/11/30 11:32:04;;;;;;;34.88;23.00;;;;;;;;;;5026202;28;20054;-67
2022/11/30 11:34:31;;;;;;;30.27;21.42;;;;;;;;;;5026762;28;20064;-67
2022/11/30 11:37:03;;;;;;;27.65;22.23;;;;;;;;;;5028951;28;20016;-68
2022/11/30 11:39:29;;;;;;;27.67;22.88;;;;;;;;;;5025840;28;20056;-67
2022/11/30 11:41:54;;;;;;;29.67;22.30;;;;;;;;;;5038413;28;20104;-68
2022/11/30 11:44:21;;;;;;;38.03;22.63;;;;;;;;;;5031471;28;21810;-67
2022/11/30 11:46:56;;;;;;;28.77;21.80;;;;;;;;;;5031970;28;20029;-67
2022/11/30 11:49:28;;;;;;;28.02;23.65;;;;;;;;;;5019496;28;20095;-67
2022/11/30 11:52:00;;;;;;;27.25;21.60;;;;;;;;;;5025649;28;20025;-68
2022/11/30 11:54:40;;;;;;;25.08;21.75;;;;;;;;;;5030907;28;20009;-67
2022/11/30 11:57:15;;;;;;;31.25;23.02;;;;;;;;;;5033377;28;20063;-67
2022/11/30 11:59:54;;;;;;;29.30;22.45;;;;;;;;;;5019964;28;20218;-67
2022/11/30 12:02:25;;;;;;;29.88;21.33;;;;;;;;;;5027752;28;20074;-68
2022/11/30 12:04:53;;;;;;;26.15;22.10;;;;;;;;;;5032750;28;20104;-67
2022/11/30 12:07:25;;;;;;;29.17;23.08;;;;;;;;;;5040495;28;20127;-67
2022/11/30 12:09:54;;;;;;;28.73;23.85;;;;;;;;;;5026438;28;20092;-67
2022/11/30 12:12:19;;;;;;;29.70;21.52;;;;;;;;;;5031257;28;20143;-68
2022/11/30 12:14:45;;;;;;;26.30;20.52;;;;;;;;;;5034178;28;20033;-67
2022/11/30 12:17:13;;;;;;;28.17;21.10;;;;;;;;;;5018809;28;20037;-68
2022/11/30 12:19:38;;;;;;;27.60;22.58;;;;;;;;;;5032957;28;20090;-67
2022/11/30 12:22:22;;;;;;;24.15;21.55;;;;;;;;;;5035767;28;20550;-67
2022/11/30 12:25:06;;;;;;;29.80;21.67;;;;;;;;;;5032205;28;20427;-67
2022/11/30 12:27:31;;;;;;;25.83;19.90;;;;;;;;;;5034905;28;20028;-67
2022/11/30 12:30:11;;;;;;;35.75;21.73;;;;;;;;;;5034201;28;20487;-68
2022/11/30 12:32:49;;;;;;;24.38;20.30;;;;;;;;;;5035084;28;20078;-68
2022/11/30 12:35:26;;;;;;;30.23;21.00;;;;;;;;;;5046041;28;20032;-67
2022/11/30 12:37:52;;;;;;;29.40;20.08;;;;;;;;;;5041585;28;20044;-67
2022/11/30 12:40:23;;;;;;;26.65;20.30;;;;;;;;;;5037662;28;20025;-68
2022/11/30 12:42:54;;;;;;;25.95;19.50;;;;;;;;;;5039989;28;20116;-67
2022/11/30 12:45:27;;;;;;;28.65;21.73;;;;;;;;;;5037771;28;20029;-67
2022/11/30 12:47:58;;;;;;;30.10;21.98;;;;;;;;;;5034731;28;20021;-67
2022/11/30 12:50:42;;;;;;;28.50;21.70;;;;;;;;;;5036955;28;20021;-67
2022/11/30 12:53:07;;;;;;;32.33;22.37;;;;;;;;;;5033814;28;20021;-69
2022/11/30 12:55:44;;;;;;;33.72;23.13;;;;;;;;;;5036298;28;20036;-68
2022/11/30 12:58:10;;;;;;;30.48;21.60;;;;;;;;;;5042508;28;20472;-67
2022/11/30 13:00:44;;;;;;;27.30;21.17;;;;;;;;;;5036285;28;20026;-68
2022/11/30 13:03:28;;;;;;;28.88;22.80;;;;;;;;;;5043705;28;20689;-68
2022/11/30 13:05:59;;;;;;;32.88;24.55;;;;;;;;;;5040359;28;20036;-67
2022/11/30 13:08:27;;;;;;;33.60;23.77;;;;;;;;;;5037635;28;20360;-68
2022/11/30 13:10:58;;;;;;;30.83;22.17;;;;;;;;;;5039004;28;20027;-68
2022/11/30 13:13:25;;;;;;;32.28;24.17;;;;;;;;;;5037000;28;20017;-68
2022/11/30 13:15:51;;;;;;;31.48;23.33;;;;;;;;;;5034601;28;20021;-68
2022/11/30 13:18:17;;;;;;;30.60;22.27;;;;;;;;;;5036903;28;20040;-68
2022/11/30 13:20:54;;;;;;;31.23;24.05;;;;;;;;;;5011268;28;20025;-68
2022/11/30 13:23:34;;;;;;;36.60;26.23;;;;;;;;;;5012140;28;20098;-68
2022/11/30 13:26:23;;;;;;;32.63;25.75;;;;;;;;;;5016104;28;20085;-68
2022/11/30 13:28:49;;;;;;;39.90;25.15;;;;;;;;;;4995081;28;20037;-68
2022/11/30 13:31:23;;;;;;;32.63;24.70;;;;;;;;;;5008503;28;20966;-68
2022/11/30 13:33:56;;;;;;;33.90;24.83;;;;;;;;;;5012613;28;20029;-69
2022/11/30 13:36:21;;;;;;;29.58;23.45;;;;;;;;;;5009762;28;20025;-69
2022/11/30 13:39:06;;;;;;;35.80;25.92;;;;;;;;;;5013052;28;20035;-68
2022/11/30 13:41:32;;;;;;;31.40;24.35;;;;;;;;;;5013659;28;20427;-68
2022/11/30 13:43:57;;;;;;;31.75;23.63;;;;;;;;;;5012315;28;20035;-69
2022/11/30 13:46:23;;;;;;;36.67;25.95;;;;;;;;;;5017553;28;20029;-68
2022/11/30 13:48:48;;;;;;;31.85;22.50;;;;;;;;;;5009420;28;20035;-69
2022/11/30 13:51:33;;;;;;;30.00;24.17;;;;;;;;;;5008172;28;20814;-68
2022/11/30 13:54:17;;;;;;;30.08;20.73;;;;;;;;;;5015452;28;20053;-68
2022/11/30 13:56:42;;;;;;;23.40;19.48;;;;;;;;;;5021471;28;20619;-68
2022/11/30 13:59:23;;;;;;;23.85;19.92;;;;;;;;;;5010380;28;20025;-69
2022/11/30 14:01:49;;;;;;;24.98;18.52;;;;;;;;;;5051391;28;20379;-69
2022/11/30 14:04:14;;;;;;;23.23;18.23;;;;;;;;;;5041691;28;20026;-69
2022/11/30 14:06:45;;;;;;;26.70;18.95;;;;;;;;;;5053715;28;20043;-68
2022/11/30 14:09:49;;;;;;;25.48;19.60;;;;;;;;;;5040088;28;20052;-68
2022/11/30 14:12:33;;;;;;;29.30;20.35;;;;;;;;;;5030871;28;20031;-68
2022/11/30 14:14:59;;;;;;;32.13;22.88;;;;;;;;;;5031106;28;20116;-68
2022/11/30 14:17:28;;;;;;;28.58;21.02;;;;;;;;;;5033556;28;20108;-68
2022/11/30 14:20:13;;;;;;;34.10;23.25;;;;;;;;;;5044726;28;20044;-68
2022/11/30 14:22:39;;;;;;;26.52;22.30;;;;;;;;;;5041836;28;20029;-69